Terminal Aerodrome Forecast
Issued by NWS Buffalo, NY

Home | Current Version | Previous Version | Text Only | Print | Product List | Glossary On
Versions: 1 2 3 4 5 6 7 8 9 10 11 12 13 14 15 16 17 18 19 20 21 22 23 24 25 26 27 28 29
570
FTUS41 KBUF 111753
TAFART
TAF
KART 111753Z 1118/1218 29013KT P6SM VCSH BKN020
      TEMPO 1118/1122 2SM -SN
     FM112300 29011G17KT P6SM BKN020
     FM120100 29009KT P6SM SCT200
     FM120700 VRB03KT P6SM BKN250
     FM121000 00000KT 1SM -SN OVC012
     FM121400 21011KT 1/2SM SN OVC007
     FM121600 23015G25KT 1/4SM +SN BLSN OVC003=

USA.gov is the U.S. government's official web portal to all federal, state and local government web resources and services.